Time;durP1;ratioP1;P1;durP2;ratioP2;P2;SDS_P1;SDS_P2;PMS_P1;PMS_P2;Temp;Humidity;BMP_temperature;BMP_pressure;BME280_temperature;BME280_humidity;BME280_pressure;Samples;Min_cycle;Max_cycle;Signal;HPM_P1;HPM_P2
2024/02/23 00:01:50;;;;;;;;;;;;;;;;;;5085046;28;19920;-72
2024/02/23 00:04:16;;;;;;;;;;;;;;;;;;5074256;28;21281;-71
2024/02/23 00:06:41;;;;;;;;;;;;;;;;;;5057851;28;19911;-69
2024/02/23 00:09:06;;;;;;;;;;;;;;;;;;5055065;28;19954;-71
2024/02/23 00:11:33;;;;;;;;;;;;;;;;;;5073292;28;20026;-68
2024/02/23 00:13:58;;;;;;;;;;;;;;;;;;5069885;28;20462;-75
2024/02/23 00:16:24;;;;;;;;;;;;;;;;;;5070401;28;19923;-72
2024/02/23 00:18:49;;;;;;;;;;;;;;;;;;5086726;28;19951;-72
2024/02/23 00:21:15;;;;;;;;;;;;;;;;;;5071275;28;19957;-73
2024/02/23 00:23:42;;;;;;;;;;;;;;;;;;5072009;28;20015;-70
2024/02/23 00:26:08;;;;;;;;;;;;;;;;;;5055432;28;20306;-71
2024/02/23 00:28:33;;;;;;;;;;;;;;;;;;5071105;28;19916;-72
2024/02/23 00:30:59;;;;;;;;;;;;;;;;;;5087600;28;20342;-72
2024/02/23 00:33:24;;;;;;;;;;;;;;;;;;5054640;28;20327;-71
2024/02/23 00:35:50;;;;;;;;;;;;;;;;;;5067815;28;20409;-71
2024/02/23 00:38:15;;;;;;;;;;;;;;;;;;5070908;28;19927;-72
2024/02/23 00:40:43;;;;;;;;;;;;;;;;;;5066446;28;19928;-72
2024/02/23 00:43:08;;;;;;;;;;;;;;;;;;5053452;28;19970;-69
2024/02/23 00:45:34;;;;;;;;;;;;;;;;;;5069617;28;20014;-72
2024/02/23 00:47:59;;;;;;;;;;;;;;;;;;5070429;28;19916;-73
2024/02/23 00:50:26;;;;;;;;;;;;;;;;;;5055371;28;19995;-71
2024/02/23 00:52:52;;;;;;;;;;;;;;;;;;5073003;28;19920;-72
2024/02/23 00:55:17;;;;;;;;;;;;;;;;;;5073958;28;20281;-71
2024/02/23 00:57:43;;;;;;;;;;;;;;;;;;5071891;28;20582;-73
2024/02/23 01:00:12;;;;;;;;;;;;;;;;;;5073462;28;19977;-72
2024/02/23 01:02:37;;;;;;;;;;;;;;;;;;5050442;28;20006;-73
2024/02/23 01:05:06;;;;;;;;;;;;;;;;;;5072269;28;19916;-67
2024/02/23 01:07:31;;;;;;;;;;;;;;;;;;5056331;28;19926;-74
2024/02/23 01:09:58;;;;;;;;;;;;;;;;;;5072126;28;19916;-75
2024/02/23 01:12:25;;;;;;;;;;;;;;;;;;5071779;28;21043;-73
2024/02/23 01:14:50;;;;;;;;;;;;;;;;;;5071989;28;20027;-73
2024/02/23 01:17:15;;;;;;;;;;;;;;;;;;5071724;28;20668;-71
2024/02/23 01:19:40;;;;;;;;;;;;;;;;;;5072148;28;20394;-73
2024/02/23 01:22:06;;;;;;;;;;;;;;;;;;5057747;28;20355;-75
2024/02/23 01:24:31;;;;;;;;;;;;;;;;;;5070249;28;19916;-74
2024/02/23 01:26:57;;;;;;;;;;;;;;;;;;5069988;28;19916;-72
2024/02/23 01:29:25;;;;;;;;;;;;;;;;;;5072325;28;19931;-72
2024/02/23 01:31:51;;;;;;;;;;;;;;;;;;5068576;28;20555;-72
2024/02/23 01:34:16;;;;;;;;;;;;;;;;;;5054811;28;19928;-73
2024/02/23 01:36:42;;;;;;;;;;;;;;;;;;5068899;28;19920;-71
2024/02/23 01:39:07;;;;;;;;;;;;;;;;;;5071400;28;21026;-73
2024/02/23 01:41:33;;;;;;;;;;;;;;;;;;5068456;28;19924;-71
2024/02/23 01:43:58;;;;;;;;;;;;;;;;;;5072425;28;19916;-73
2024/02/23 01:46:23;;;;;;;;;;;;;;;;;;5071009;28;19927;-71
2024/02/23 01:48:49;;;;;;;;;;;;;;;;;;5070807;28;19958;-72
2024/02/23 01:51:14;;;;;;;;;;;;;;;;;;5069857;28;19977;-73
2024/02/23 01:53:39;;;;;;;;;;;;;;;;;;5072887;28;19912;-74
2024/02/23 01:56:04;;;;;;;;;;;;;;;;;;5068757;28;19966;-72
2024/02/23 01:58:30;;;;;;;;;;;;;;;;;;5069084;28;19921;-74
2024/02/23 02:00:55;;;;;;;;;;;;;;;;;;5072087;28;19927;-69
2024/02/23 02:03:21;;;;;;;;;;;;;;;;;;5054774;28;19950;-72
2024/02/23 02:05:46;;;;;;;;;;;;;;;;;;5069723;28;19926;-70
2024/02/23 02:08:11;;;;;;;;;;;;;;;;;;5069638;28;20038;-69
2024/02/23 02:10:37;;;;;;;;;;;;;;;;;;5070355;28;19928;-71
2024/02/23 02:13:02;;;;;;;;;;;;;;;;;;5069482;28;19988;-70
2024/02/23 02:15:28;;;;;;;;;;;;;;;;;;5068910;28;19943;-70
2024/02/23 02:17:53;;;;;;;;;;;;;;;;;;5069201;28;19916;-72
2024/02/23 02:20:18;;;;;;;;;;;;;;;;;;5068679;28;19923;-73
2024/02/23 02:22:47;;;;;;;;;;;;;;;;;;5067127;28;20389;-72
2024/02/23 02:25:12;;;;;;;;;;;;;;;;;;5067900;28;20004;-71
2024/02/23 02:27:39;;;;;;;;;;;;;;;;;;5069117;28;19915;-73
2024/02/23 02:30:04;;;;;;;;;;;;;;;;;;5068305;28;19916;-71
2024/02/23 02:32:29;;;;;;;;;;;;;;;;;;5069038;28;19928;-73
2024/02/23 02:34:55;;;;;;;;;;;;;;;;;;5070077;28;19916;-72
2024/02/23 02:37:20;;;;;;;;;;;;;;;;;;5068085;28;19928;-73
2024/02/23 02:39:45;;;;;;;;;;;;;;;;;;5070226;28;20335;-71
2024/02/23 02:42:11;;;;;;;;;;;;;;;;;;5067863;28;20023;-72
2024/02/23 02:44:38;;;;;;;;;;;;;;;;;;5068537;28;19912;-72
2024/02/23 02:47:04;;;;;;;;;;;;;;;;;;5068363;28;19916;-73
2024/02/23 02:49:29;;;;;;;;;;;;;;;;;;5069627;28;20388;-73
2024/02/23 02:51:54;;;;;;;;;;;;;;;;;;5068450;28;20089;-74
2024/02/23 02:54:20;;;;;;;;;;;;;;;;;;5072279;28;20367;-73
2024/02/23 02:56:46;;;;;;;;;;;;;;;;;;5069401;28;20124;-73
2024/02/23 02:59:11;;;;;;;;;;;;;;;;;;5070323;28;19924;-73
2024/02/23 03:01:36;;;;;;;;;;;;;;;;;;5068329;28;19927;-72
2024/02/23 03:04:02;;;;;;;;;;;;;;;;;;5069187;28;19985;-72
2024/02/23 03:06:27;;;;;;;;;;;;;;;;;;5068622;28;19913;-76
2024/02/23 03:08:52;;;;;;;;;;;;;;;;;;5071655;28;19920;-76
2024/02/23 03:11:18;;;;;;;;;;;;;;;;;;5070875;28;19916;-74
2024/02/23 03:13:43;;;;;;;;;;;;;;;;;;5070162;28;19920;-72
2024/02/23 03:16:08;;;;;;;;;;;;;;;;;;5068617;28;20311;-77
2024/02/23 03:18:34;;;;;;;;;;;;;;;;;;5067930;28;19932;-73
2024/02/23 03:20:59;;;;;;;;;;;;;;;;;;5069813;28;19933;-74
2024/02/23 03:23:24;;;;;;;;;;;;;;;;;;5067818;28;20313;-72
2024/02/23 03:25:50;;;;;;;;;;;;;;;;;;5066978;28;19920;-74
2024/02/23 03:28:15;;;;;;;;;;;;;;;;;;5069538;28;20513;-76
2024/02/23 03:30:40;;;;;;;;;;;;;;;;;;5066747;28;20330;-71
2024/02/23 03:33:08;;;;;;;;;;;;;;;;;;5071606;28;20405;-72
2024/02/23 03:35:34;;;;;;;;;;;;;;;;;;5070441;28;20407;-76
2024/02/23 03:37:59;;;;;;;;;;;;;;;;;;5067862;28;19928;-75
2024/02/23 03:40:25;;;;;;;;;;;;;;;;;;5070908;28;20407;-75
2024/02/23 03:42:50;;;;;;;;;;;;;;;;;;5089690;28;20514;-75
2024/02/23 03:45:15;;;;;;;;;;;;;;;;;;5072749;28;19920;-76
2024/02/23 03:47:41;;;;;;;;;;;;;;;;;;5056673;28;19937;-75
2024/02/23 03:50:06;;;;;;;;;;;;;;;;;;5072672;28;19912;-73
2024/02/23 03:52:31;;;;;;;;;;;;;;;;;;5087565;28;19969;-73
2024/02/23 03:54:56;;;;;;;;;;;;;;;;;;5089518;28;19916;-76
2024/02/23 03:57:22;;;;;;;;;;;;;;;;;;5054711;28;19927;-76
2024/02/23 03:59:47;;;;;;;;;;;;;;;;;;5073593;28;19969;-77
2024/02/23 04:02:12;;;;;;;;;;;;;;;;;;5054893;28;20006;-77
2024/02/23 04:04:38;;;;;;;;;;;;;;;;;;5068760;28;19920;-78
2024/02/23 04:07:03;;;;;;;;;;;;;;;;;;5071393;28;19920;-73
2024/02/23 04:09:28;;;;;;;;;;;;;;;;;;5073909;28;20003;-76
2024/02/23 04:11:55;;;;;;;;;;;;;;;;;;5086344;28;19938;-78
2024/02/23 04:14:20;;;;;;;;;;;;;;;;;;5073681;28;19912;-80
2024/02/23 04:16:49;;;;;;;;;;;;;;;;;;5052339;28;19923;-79
2024/02/23 04:19:14;;;;;;;;;;;;;;;;;;5091744;28;20313;-76
2024/02/23 04:21:39;;;;;;;;;;;;;;;;;;5090007;28;19915;-81
2024/02/23 04:24:08;;;;;;;;;;;;;;;;;;5093106;28;19985;-77
2024/02/23 04:26:33;;;;;;;;;;;;;;;;;;5092871;28;20028;-75
2024/02/23 04:28:59;;;;;;;;;;;;;;;;;;5093421;28;19945;-78
2024/02/23 04:31:24;;;;;;;;;;;;;;;;;;5074494;28;19915;-80
2024/02/23 04:33:49;;;;;;;;;;;;;;;;;;5061028;28;19926;-78
2024/02/23 04:36:16;;;;;;;;;;;;;;;;;;5091416;28;20408;-76
2024/02/23 04:38:41;;;;;;;;;;;;;;;;;;5077821;28;19923;-80
2024/02/23 04:41:09;;;;;;;;;;;;;;;;;;5093229;28;19928;-77
2024/02/23 04:43:34;;;;;;;;;;;;;;;;;;5092294;28;19920;-77
2024/02/23 04:46:00;;;;;;;;;;;;;;;;;;5074353;28;19920;-78
2024/02/23 04:48:25;;;;;;;;;;;;;;;;;;5077542;28;20244;-80
2024/02/23 04:50:50;;;;;;;;;;;;;;;;;;5059264;28;20121;-79
2024/02/23 04:53:16;;;;;;;;;;;;;;;;;;5077640;28;20302;-79
2024/02/23 04:55:41;;;;;;;;;;;;;;;;;;5091189;28;20393;-77
2024/02/23 04:58:07;;;;;;;;;;;;;;;;;;5074747;28;19916;-78
2024/02/23 05:00:35;;;;;;;;;;;;;;;;;;5059339;28;21824;-76
2024/02/23 05:03:03;;;;;;;;;;;;;;;;;;5074864;28;19920;-75
2024/02/23 05:05:28;;;;;;;;;;;;;;;;;;5075628;28;19922;-74
2024/02/23 05:07:53;;;;;;;;;;;;;;;;;;5089928;28;19920;-75
2024/02/23 05:10:19;;;;;;;;;;;;;;;;;;5092927;28;19916;-76
2024/02/23 05:12:44;;;;;;;;;;;;;;;;;;5090035;28;19934;-75
2024/02/23 05:15:09;;;;;;;;;;;;;;;;;;5091698;28;19959;-75
2024/02/23 05:17:34;;;;;;;;;;;;;;;;;;5072061;28;19920;-73
2024/02/23 05:20:00;;;;;;;;;;;;;;;;;;5073170;28;19955;-73
2024/02/23 05:22:25;;;;;;;;;;;;;;;;;;5075707;28;20359;-74
2024/02/23 05:24:50;;;;;;;;;;;;;;;;;;5088580;28;19920;-73
2024/02/23 05:27:16;;;;;;;;;;;;;;;;;;5075294;28;19912;-72
2024/02/23 05:29:41;;;;;;;;;;;;;;;;;;5057421;28;19939;-72
2024/02/23 05:32:06;;;;;;;;;;;;;;;;;;5090123;28;20043;-72
2024/02/23 05:34:32;;;;;;;;;;;;;;;;;;5072563;28;19919;-73
2024/02/23 05:37:00;;;;;;;;;;;;;;;;;;5090694;28;19919;-74
2024/02/23 05:39:25;;;;;;;;;;;;;;;;;;5057177;28;19924;-73
2024/02/23 05:41:51;;;;;;;;;;;;;;;;;;5071950;28;19935;-73
2024/02/23 05:44:16;;;;;;;;;;;;;;;;;;5092995;28;19950;-71
2024/02/23 05:46:41;;;;;;;;;;;;;;;;;;5088846;28;20011;-72
2024/02/23 05:49:07;;;;;;;;;;;;;;;;;;5090859;28;19912;-72
2024/02/23 05:51:32;;;;;;;;;;;;;;;;;;5070435;28;20686;-71
2024/02/23 05:53:57;;;;;;;;;;;;;;;;;;5075056;28;19982;-71
2024/02/23 05:56:28;;;;;;;;;;;;;;;;;;5073954;28;20279;-72
2024/02/23 05:58:54;;;;;;;;;;;;;;;;;;5091083;28;20324;-70
2024/02/23 06:01:19;;;;;;;;;;;;;;;;;;5088803;28;19942;-70
2024/02/23 06:03:44;;;;;;;;;;;;;;;;;;5071007;28;20008;-73
2024/02/23 06:06:10;;;;;;;;;;;;;;;;;;5071350;28;19915;-72
2024/02/23 06:08:36;;;;;;;;;;;;;;;;;;5056123;28;19922;-70
2024/02/23 06:11:05;;;;;;;;;;;;;;;;;;5088800;28;20416;-71
2024/02/23 06:13:31;;;;;;;;;;;;;;;;;;5075679;28;20367;-70
2024/02/23 06:15:56;;;;;;;;;;;;;;;;;;5087754;28;19927;-71
2024/02/23 06:18:24;;;;;;;;;;;;;;;;;;5068081;28;20026;-71
2024/02/23 06:20:50;;;;;;;;;;;;;;;;;;5074465;28;19916;-71
2024/02/23 06:23:15;;;;;;;;;;;;;;;;;;5072625;28;19992;-71
2024/02/23 06:25:46;;;;;;;;;;;;;;;;;;5088503;27;19926;-72
2024/02/23 06:28:14;;;;;;;;;;;;;;;;;;5073478;28;20371;-71
2024/02/23 06:30:39;;;;;;;;;;;;;;;;;;5085911;28;19926;-71
2024/02/23 06:33:08;;;;;;;;;;;;;;;;;;5072710;28;20357;-71
2024/02/23 06:35:33;;;;;;;;;;;;;;;;;;5073784;28;20294;-75
2024/02/23 06:38:05;;;;;;;;;;;;;;;;;;5072944;28;19920;-71
2024/02/23 06:43:25;;;;;;;;;;;;;;;;;;5063310;28;20023;-75
2024/02/23 06:45:51;;;;;;;;;;;;;;;;;;5064904;28;19916;-71
2024/02/23 06:48:18;;;;;;;;;;;;;;;;;;5064495;28;19920;-71
2024/02/23 06:50:44;;;;;;;;;;;;;;;;;;5063701;28;19923;-71
2024/02/23 06:53:09;;;;;;;;;;;;;;;;;;5064860;28;19920;-70
2024/02/23 06:55:37;;;;;;;;;;;;;;;;;;5063358;28;20303;-73
2024/02/23 06:58:04;;;;;;;;;;;;;;;;;;5061191;28;19922;-69
2024/02/23 07:00:29;;;;;;;;;;;;;;;;;;5062430;28;19923;-69
2024/02/23 07:02:55;;;;;;;;;;;;;;;;;;5064135;28;19927;-69
2024/02/23 07:05:20;;;;;;;;;;;;;;;;;;5066644;28;19916;-70
2024/02/23 07:07:46;;;;;;;;;;;;;;;;;;5060273;28;19919;-73
2024/02/23 07:10:12;;;;;;;;;;;;;;;;;;5064698;28;19920;-71
2024/02/23 07:12:37;;;;;;;;;;;;;;;;;;5052083;28;20894;-72
2024/02/23 07:15:05;;;;;;;;;;;;;;;;;;5062613;28;19927;-72
2024/02/23 07:17:30;;;;;;;;;;;;;;;;;;5063766;28;19927;-69
2024/02/23 07:20:03;;;;;;;;;;;;;;;;;;5063527;28;19923;-71
2024/02/23 07:22:28;;;;;;;;;;;;;;;;;;5062782;28;19985;-69
2024/02/23 07:24:53;;;;;;;;;;;;;;;;;;5061775;28;20352;-68
2024/02/23 07:27:21;;;;;;;;;;;;;;;;;;5062059;28;20461;-69
2024/02/23 07:29:50;;;;;;;;;;;;;;;;;;5061881;28;19923;-69
2024/02/23 07:32:15;;;;;;;;;;;;;;;;;;5061604;28;20586;-69
2024/02/23 07:34:40;;;;;;;;;;;;;;;;;;5065390;28;19920;-69
2024/02/23 07:37:05;;;;;;;;;;;;;;;;;;5063266;28;19970;-72
2024/02/23 07:39:31;;;;;;;;;;;;;;;;;;5064982;28;19966;-70
2024/02/23 07:41:56;;;;;;;;;;;;;;;;;;5063069;28;19966;-69
2024/02/23 07:44:22;;;;;;;;;;;;;;;;;;5064016;28;19920;-70
2024/02/23 07:46:47;;;;;;;;;;;;;;;;;;5068385;28;20459;-69
2024/02/23 07:49:15;;;;;;;;;;;;;;;;;;5067640;28;20319;-68
2024/02/23 07:51:40;;;;;;;;;;;;;;;;;;5067105;28;19922;-69
2024/02/23 07:54:10;;;;;;;;;;;;;;;;;;5066964;28;19971;-68
2024/02/23 07:56:39;;;;;;;;;;;;;;;;;;5066142;28;19916;-69
2024/02/23 08:02:21;;;;;;;;;;;;;;;;;;5066114;28;20363;-69
2024/02/23 08:04:47;;;;;;;;;;;;;;;;;;5066612;28;20015;-70
2024/02/23 08:07:12;;;;;;;;;;;;;;;;;;5069051;28;21501;-69
2024/02/23 08:09:38;;;;;;;;;;;;;;;;;;5063480;28;19942;-72
2024/02/23 08:12:03;;;;;;;;;;;;;;;;;;5067716;28;20022;-70
2024/02/23 08:14:28;;;;;;;;;;;;;;;;;;5068161;28;19943;-71
2024/02/23 08:16:54;;;;;;;;;;;;;;;;;;5066132;28;20018;-69
2024/02/23 08:19:19;;;;;;;;;;;;;;;;;;5051987;28;19931;-69
2024/02/23 08:21:45;;;;;;;;;;;;;;;;;;5067750;28;20400;-71
2024/02/23 08:24:10;;;;;;;;;;;;;;;;;;5068941;28;19920;-72
2024/02/23 08:26:38;;;;;;;;;;;;;;;;;;5062837;28;20023;-69
2024/02/23 08:29:05;;;;;;;;;;;;;;;;;;5066468;28;19928;-69
2024/02/23 08:31:31;;;;;;;;;;;;;;;;;;5064977;28;19916;-72
2024/02/23 08:33:56;;;;;;;;;;;;;;;;;;5064759;28;20359;-70
2024/02/23 08:36:21;;;;;;;;;;;;;;;;;;5068505;28;19919;-67
2024/02/23 08:38:46;;;;;;;;;;;;;;;;;;5067945;28;20653;-69
2024/02/23 08:41:12;;;;;;;;;;;;;;;;;;5067577;28;19920;-68
2024/02/23 08:43:37;;;;;;;;;;;;;;;;;;5071311;28;20030;-70
2024/02/23 08:46:03;;;;;;;;;;;;;;;;;;5071204;28;19926;-68
2024/02/23 08:48:28;;;;;;;;;;;;;;;;;;5057757;28;19998;-69
2024/02/23 08:50:53;;;;;;;;;;;;;;;;;;5088427;28;19919;-71
2024/02/23 08:53:19;;;;;;;;;;;;;;;;;;5067681;28;19923;-70
2024/02/23 08:55:44;;;;;;;;;;;;;;;;;;5085919;28;19924;-70
2024/02/23 08:58:09;;;;;;;;;;;;;;;;;;5057050;28;20415;-72
2024/02/23 09:00:36;;;;;;;;;;;;;;;;;;5085788;28;19920;-71
2024/02/23 09:03:04;;;;;;;;;;;;;;;;;;5087194;28;20410;-69
2024/02/23 09:05:29;;;;;;;;;;;;;;;;;;5089503;28;20279;-69
2024/02/23 09:07:57;;;;;;;;;;;;;;;;;;5072450;28;19923;-68
2024/02/23 09:10:22;;;;;;;;;;;;;;;;;;5076519;28;19920;-70
2024/02/23 09:12:48;;;;;;;;;;;;;;;;;;5076055;28;19970;-71
2024/02/23 09:15:13;;;;;;;;;;;;;;;;;;5089632;28;19920;-70
2024/02/23 09:17:41;;;;;;;;;;;;;;;;;;5090259;28;19920;-69
2024/02/23 09:20:07;;;;;;;;;;;;;;;;;;5089443;28;19942;-69
2024/02/23 09:22:32;;;;;;;;;;;;;;;;;;5092541;28;19920;-70
2024/02/23 09:25:00;;;;;;;;;;;;;;;;;;5089915;28;19919;-69
2024/02/23 09:27:25;;;;;;;;;;;;;;;;;;5088763;28;19922;-71
2024/02/23 09:29:51;;;;;;;;;;;;;;;;;;5073156;28;19924;-70
2024/02/23 09:32:16;;;;;;;;;;;;;;;;;;5071151;28;19923;-71
2024/02/23 09:34:42;;;;;;;;;;;;;;;;;;5075129;28;19916;-72
2024/02/23 09:37:07;;;;;;;;;;;;;;;;;;5089045;28;19919;-71
2024/02/23 09:39:33;;;;;;;;;;;;;;;;;;5074504;28;19949;-71
2024/02/23 09:41:58;;;;;;;;;;;;;;;;;;5090185;28;19928;-71
2024/02/23 09:44:23;;;;;;;;;;;;;;;;;;5090221;28;20277;-71
2024/02/23 09:46:49;;;;;;;;;;;;;;;;;;5089263;28;20070;-70
2024/02/23 09:49:14;;;;;;;;;;;;;;;;;;5091057;28;20007;-69
2024/02/23 09:51:40;;;;;;;;;;;;;;;;;;5072457;28;19927;-71
2024/02/23 09:54:07;;;;;;;;;;;;;;;;;;5076072;28;19923;-69
2024/02/23 09:56:33;;;;;;;;;;;;;;;;;;5089851;28;19920;-69
2024/02/23 09:58:58;;;;;;;;;;;;;;;;;;5069895;28;19939;-72
2024/02/23 10:01:24;;;;;;;;;;;;;;;;;;5090220;28;19916;-69
2024/02/23 10:03:49;;;;;;;;;;;;;;;;;;5089692;28;19916;-71
2024/02/23 10:06:14;;;;;;;;;;;;;;;;;;5072824;28;19960;-70
2024/02/23 10:08:40;;;;;;;;;;;;;;;;;;5090037;28;19920;-72
2024/02/23 10:11:05;;;;;;;;;;;;;;;;;;5091400;28;22386;-70
2024/02/23 10:13:30;;;;;;;;;;;;;;;;;;5075349;28;19922;-70
2024/02/23 10:15:56;;;;;;;;;;;;;;;;;;5072283;28;20358;-72
2024/02/23 10:18:21;;;;;;;;;;;;;;;;;;5072204;28;19926;-69
2024/02/23 10:20:47;;;;;;;;;;;;;;;;;;5089420;28;19955;-70
2024/02/23 10:23:12;;;;;;;;;;;;;;;;;;5086861;28;19916;-70
2024/02/23 10:25:38;;;;;;;;;;;;;;;;;;5073051;28;19935;-69
2024/02/23 10:28:03;;;;;;;;;;;;;;;;;;5089864;28;19930;-69
2024/02/23 10:30:28;;;;;;;;;;;;;;;;;;5088224;28;20366;-70
2024/02/23 10:32:54;;;;;;;;;;;;;;;;;;5090326;28;19920;-70
2024/02/23 10:35:19;;;;;;;;;;;;;;;;;;5055662;28;19964;-70
2024/02/23 10:37:45;;;;;;;;;;;;;;;;;;5072553;28;19938;-71
2024/02/23 10:40:10;;;;;;;;;;;;;;;;;;5088611;28;20361;-71
2024/02/23 10:42:35;;;;;;;;;;;;;;;;;;5089027;28;20023;-70
2024/02/23 10:45:04;;;;;;;;;;;;;;;;;;5089331;28;19924;-71
2024/02/23 10:47:29;;;;;;;;;;;;;;;;;;5086160;28;19961;-70
2024/02/23 10:49:55;;;;;;;;;;;;;;;;;;5073219;28;19916;-69
2024/02/23 10:52:21;;;;;;;;;;;;;;;;;;5090526;28;19927;-72
2024/02/23 10:54:46;;;;;;;;;;;;;;;;;;5074264;28;20327;-70
2024/02/23 10:57:12;;;;;;;;;;;;;;;;;;5086899;28;19927;-69
2024/02/23 10:59:37;;;;;;;;;;;;;;;;;;5087840;28;19924;-71
2024/02/23 11:02:02;;;;;;;;;;;;;;;;;;5087199;28;19959;-70
2024/02/23 11:04:28;;;;;;;;;;;;;;;;;;5089765;28;20427;-71
2024/02/23 11:06:53;;;;;;;;;;;;;;;;;;5073636;28;20058;-70
2024/02/23 11:09:18;;;;;;;;;;;;;;;;;;5088597;28;19919;-69
2024/02/23 11:11:44;;;;;;;;;;;;;;;;;;5086711;28;19926;-72
2024/02/23 11:14:09;;;;;;;;;;;;;;;;;;5071737;28;19924;-70
2024/02/23 11:16:34;;;;;;;;;;;;;;;;;;5072854;28;19923;-73
2024/02/23 11:19:03;;;;;;;;;;;;;;;;;;5072776;28;20007;-70
2024/02/23 11:21:28;;;;;;;;;;;;;;;;;;5074349;28;19916;-70
2024/02/23 11:23:54;;;;;;;;;;;;;;;;;;5073491;28;20407;-71
2024/02/23 11:26:21;;;;;;;;;;;;;;;;;;5069520;28;20355;-70
2024/02/23 11:28:47;;;;;;;;;;;;;;;;;;5068080;28;20025;-69
2024/02/23 11:31:14;;;;;;;;;;;;;;;;;;5087809;28;19919;-70
2024/02/23 11:33:40;;;;;;;;;;;;;;;;;;5085706;28;19978;-69
2024/02/23 11:36:05;;;;;;;;;;;;;;;;;;5070677;28;20003;-70
2024/02/23 11:41:28;;;;;;;;;;;;;;;;;;5089257;28;19938;-70
2024/02/23 11:43:53;;;;;;;;;;;;;;;;;;5086220;28;20397;-69
2024/02/23 11:46:21;;;;;;;;;;;;;;;;;;5074397;28;19916;-70
2024/02/23 11:48:46;;;;;;;;;;;;;;;;;;5068036;28;19971;-71
2024/02/23 11:51:15;;;;;;;;;;;;;;;;;;5072765;28;19985;-70
2024/02/23 11:53:40;;;;;;;;;;;;;;;;;;5070256;28;19924;-71
2024/02/23 11:56:05;;;;;;;;;;;;;;;;;;5087152;28;19947;-70
2024/02/23 11:58:30;;;;;;;;;;;;;;;;;;5086013;28;19922;-71
2024/02/23 12:00:56;;;;;;;;;;;;;;;;;;5086720;28;21867;-72
2024/02/23 12:03:21;;;;;;;;;;;;;;;;;;5086929;28;20515;-71
2024/02/23 12:05:47;;;;;;;;;;;;;;;;;;5074722;28;20014;-68
2024/02/23 12:08:12;;;;;;;;;;;;;;;;;;5088227;28;20409;-72
2024/02/23 12:10:38;;;;;;;;;;;;;;;;;;5086272;28;19982;-72
2024/02/23 12:13:03;;;;;;;;;;;;;;;;;;5087505;28;19966;-71
2024/02/23 12:15:29;;;;;;;;;;;;;;;;;;5085446;28;20359;-71
2024/02/23 12:17:54;;;;;;;;;;;;;;;;;;5073182;28;19961;-73
2024/02/23 12:20:20;;;;;;;;;;;;;;;;;;5087307;28;19920;-71
2024/02/23 12:22:46;;;;;;;;;;;;;;;;;;5053796;28;19916;-71
2024/02/23 12:25:11;;;;;;;;;;;;;;;;;;5087372;28;19920;-70
2024/02/23 12:27:36;;;;;;;;;;;;;;;;;;5087294;28;20294;-71
2024/02/23 12:33:18;;;;;;;;;;;;;;;;;;5086034;28;19922;-71
2024/02/23 12:35:44;;;;;;;;;;;;;;;;;;5087754;28;19920;-71
2024/02/23 12:38:09;;;;;;;;;;;;;;;;;;5054399;28;20010;-70
2024/02/23 12:40:34;;;;;;;;;;;;;;;;;;5057301;28;20316;-71
2024/02/23 12:43:00;;;;;;;;;;;;;;;;;;5074147;28;19927;-70
2024/02/23 12:45:28;;;;;;;;;;;;;;;;;;5074736;28;19989;-69
2024/02/23 12:47:53;;;;;;;;;;;;;;;;;;5088845;28;20323;-74
2024/02/23 12:50:19;;;;;;;;;;;;;;;;;;5093277;28;19927;-70
2024/02/23 12:52:45;;;;;;;;;;;;;;;;;;5090366;28;20616;-69
2024/02/23 12:55:10;;;;;;;;;;;;;;;;;;5068891;28;20013;-68
2024/02/23 12:57:38;;;;;;;;;;;;;;;;;;5075234;28;20340;-71
2024/02/23 13:00:05;;;;;;;;;;;;;;;;;;5075987;28;19930;-70
2024/02/23 13:05:22;;;;;;;;;;;;;;;;;;5090268;28;19919;-72
2024/02/23 13:07:47;;;;;;;;;;;;;;;;;;5075233;28;19920;-70
2024/02/23 13:10:18;;;;;;;;;;;;;;;;;;5089703;28;20547;-68
2024/02/23 13:12:43;;;;;;;;;;;;;;;;;;5072294;28;20422;-70
2024/02/23 13:15:08;;;;;;;;;;;;;;;;;;5075154;28;19916;-69
2024/02/23 13:17:34;;;;;;;;;;;;;;;;;;5090100;28;20416;-70
2024/02/23 13:20:02;;;;;;;;;;;;;;;;;;5091647;28;20475;-68
2024/02/23 13:22:30;;;;;;;;;;;;;;;;;;5074933;28;20304;-68
2024/02/23 13:24:56;;;;;;;;;;;;;;;;;;5071800;28;19920;-70
2024/02/23 13:27:21;;;;;;;;;;;;;;;;;;5089425;28;19912;-68
2024/02/23 13:29:46;;;;;;;;;;;;;;;;;;5073082;28;20120;-68
2024/02/23 13:32:12;;;;;;;;;;;;;;;;;;5071577;28;19920;-68
2024/02/23 13:34:37;;;;;;;;;;;;;;;;;;5089784;28;19948;-68
2024/02/23 13:37:02;;;;;;;;;;;;;;;;;;5073481;28;20434;-68
2024/02/23 13:42:52;;;;;;;;;;;;;;;;;;5088762;28;20020;-71
2024/02/23 13:45:17;;;;;;;;;;;;;;;;;;5069902;28;20298;-68
2024/02/23 13:47:44;;;;;;;;;;;;;;;;;;5072606;28;19990;-69
2024/02/23 13:50:09;;;;;;;;;;;;;;;;;;5071499;28;19915;-70
2024/02/23 13:52:35;;;;;;;;;;;;;;;;;;5073885;28;19926;-70
2024/02/23 13:55:00;;;;;;;;;;;;;;;;;;5073862;28;20002;-70
2024/02/23 13:57:25;;;;;;;;;;;;;;;;;;5073753;28;19989;-68
2024/02/23 13:59:53;;;;;;;;;;;;;;;;;;5074056;28;20311;-68
2024/02/23 14:02:19;;;;;;;;;;;;;;;;;;5071698;28;19916;-69
2024/02/23 14:04:45;;;;;;;;;;;;;;;;;;5089025;28;19923;-68
2024/02/23 14:07:10;;;;;;;;;;;;;;;;;;5056447;28;20586;-68
2024/02/23 14:09:35;;;;;;;;;;;;;;;;;;5088615;28;19957;-69
2024/02/23 14:12:01;;;;;;;;;;;;;;;;;;5070679;28;20000;-70
2024/02/23 14:14:26;;;;;;;;;;;;;;;;;;5088847;28;20411;-69
2024/02/23 14:20:09;;;;;;;;;;;;;;;;;;5085841;28;19996;-70
2024/02/23 14:22:34;;;;;;;;;;;;;;;;;;5087658;28;19919;-70
2024/02/23 14:24:59;;;;;;;;;;;;;;;;;;5073160;28;20002;-71
2024/02/23 14:27:26;;;;;;;;;;;;;;;;;;5088122;28;20037;-70
2024/02/23 14:29:52;;;;;;;;;;;;;;;;;;5071067;28;20036;-74
2024/02/23 14:32:17;;;;;;;;;;;;;;;;;;5070347;27;20783;-71
2024/02/23 14:34:43;;;;;;;;;;;;;;;;;;5070122;28;20074;-70
2024/02/23 14:37:08;;;;;;;;;;;;;;;;;;5089321;28;20015;-71
2024/02/23 14:39:35;;;;;;;;;;;;;;;;;;5070860;28;20461;-74
2024/02/23 14:42:03;;;;;;;;;;;;;;;;;;5069843;28;20566;-73
2024/02/23 14:44:29;;;;;;;;;;;;;;;;;;5088514;28;20410;-70
2024/02/23 14:46:54;;;;;;;;;;;;;;;;;;5089361;28;19916;-70
2024/02/23 14:49:20;;;;;;;;;;;;;;;;;;5088467;28;19916;-70
2024/02/23 14:51:47;;;;;;;;;;;;;;;;;;5070757;28;20084;-68
2024/02/23 14:54:12;;;;;;;;;;;;;;;;;;5070073;28;19923;-69
2024/02/23 14:56:41;;;;;;;;;;;;;;;;;;5072342;28;20545;-68
2024/02/23 14:59:09;;;;;;;;;;;;;;;;;;5071401;28;19962;-68
2024/02/23 15:01:34;;;;;;;;;;;;;;;;;;5087856;28;19943;-70
2024/02/23 15:03:59;;;;;;;;;;;;;;;;;;5089859;28;20430;-69
2024/02/23 15:06:27;;;;;;;;;;;;;;;;;;5069501;28;20007;-70
2024/02/23 15:08:52;;;;;;;;;;;;;;;;;;5088096;28;20013;-69
2024/02/23 15:11:18;;;;;;;;;;;;;;;;;;5071621;28;19920;-69
2024/02/23 15:13:43;;;;;;;;;;;;;;;;;;5070322;28;19995;-69
2024/02/23 15:16:08;;;;;;;;;;;;;;;;;;5088110;28;20002;-69
2024/02/23 15:18:35;;;;;;;;;;;;;;;;;;5088096;28;19976;-68
2024/02/23 15:21:00;;;;;;;;;;;;;;;;;;5088081;28;19956;-70
2024/02/23 15:23:26;;;;;;;;;;;;;;;;;;5072317;28;20044;-68
2024/02/23 15:25:51;;;;;;;;;;;;;;;;;;5057632;28;19916;-68
2024/02/23 15:28:22;;;;;;;;;;;;;;;;;;5070010;28;19919;-69
2024/02/23 15:30:47;;;;;;;;;;;;;;;;;;5086575;28;19920;-70
2024/02/23 15:33:14;;;;;;;;;;;;;;;;;;5055011;28;19950;-69
2024/02/23 15:35:39;;;;;;;;;;;;;;;;;;5088408;28;19955;-69
2024/02/23 15:38:05;;;;;;;;;;;;;;;;;;5072066;28;20007;-69
2024/02/23 15:40:35;;;;;;;;;;;;;;;;;;5086450;28;20348;-69
2024/02/23 15:43:00;;;;;;;;;;;;;;;;;;5071720;28;20303;-68
2024/02/23 15:45:28;;;;;;;;;;;;;;;;;;5085797;28;19920;-68
2024/02/23 15:47:53;;;;;;;;;;;;;;;;;;5087384;28;19915;-68
2024/02/23 15:50:22;;;;;;;;;;;;;;;;;;5087672;28;19920;-68
2024/02/23 15:52:50;;;;;;;;;;;;;;;;;;5069059;28;19922;-69
2024/02/23 15:55:16;;;;;;;;;;;;;;;;;;5086208;28;20740;-71
2024/02/23 15:57:42;;;;;;;;;;;;;;;;;;5087221;28;19926;-70
2024/02/23 16:00:10;;;;;;;;;;;;;;;;;;5068639;28;20103;-70
2024/02/23 16:02:37;;;;;;;;;;;;;;;;;;5070926;28;20327;-69
2024/02/23 16:05:03;;;;;;;;;;;;;;;;;;5086471;28;19919;-69
2024/02/23 16:07:31;;;;;;;;;;;;;;;;;;5086361;28;20017;-68
2024/02/23 16:09:56;;;;;;;;;;;;;;;;;;5087826;28;19919;-68
2024/02/23 16:12:24;;;;;;;;;;;;;;;;;;5087575;28;20322;-69
2024/02/23 16:14:50;;;;;;;;;;;;;;;;;;5069647;28;20020;-69
2024/02/23 16:17:15;;;;;;;;;;;;;;;;;;5068241;28;19924;-69
2024/02/23 16:19:40;;;;;;;;;;;;;;;;;;5067238;28;19920;-68
2024/02/23 16:22:05;;;;;;;;;;;;;;;;;;5087639;28;20386;-69
2024/02/23 16:24:31;;;;;;;;;;;;;;;;;;5071757;28;19923;-69
2024/02/23 16:26:56;;;;;;;;;;;;;;;;;;5069079;28;19920;-69
2024/02/23 16:29:21;;;;;;;;;;;;;;;;;;5071842;28;19957;-69
2024/02/23 16:31:47;;;;;;;;;;;;;;;;;;5067925;28;19970;-69
2024/02/23 16:34:17;;;;;;;;;;;;;;;;;;5070543;28;19959;-69
2024/02/23 16:36:44;;;;;;;;;;;;;;;;;;5069376;28;20305;-69
2024/02/23 16:39:09;;;;;;;;;;;;;;;;;;5069992;28;19930;-70
2024/02/23 16:41:35;;;;;;;;;;;;;;;;;;5071683;28;20325;-69
2024/02/23 16:44:01;;;;;;;;;;;;;;;;;;5071641;28;19992;-69
2024/02/23 16:46:28;;;;;;;;;;;;;;;;;;5086560;28;19919;-69
2024/02/23 16:48:54;;;;;;;;;;;;;;;;;;5087325;28;19962;-69
2024/02/23 16:51:22;;;;;;;;;;;;;;;;;;5088021;28;19962;-69
2024/02/23 16:53:48;;;;;;;;;;;;;;;;;;5070244;28;20426;-70
2024/02/23 16:56:19;;;;;;;;;;;;;;;;;;5086327;28;20694;-70
2024/02/23 16:58:44;;;;;;;;;;;;;;;;;;5067592;28;19920;-69